createdAt,value
2023-02-02T00:01:00.207Z,16.10
2023-02-02T00:03:26.769Z,16.30
2023-02-02T00:05:54.439Z,16.30
2023-02-02T00:08:22.032Z,14.20
2023-02-02T00:10:50.671Z,13.10
2023-02-02T00:13:18.170Z,13.00
2023-02-02T00:15:44.886Z,12.10
2023-02-02T00:18:11.537Z,11.40
2023-02-02T00:20:38.133Z,11.80
2023-02-02T00:23:04.972Z,11.50
2023-02-02T00:25:32.274Z,14.00
2023-02-02T00:27:58.938Z,12.80
2023-02-02T00:30:25.649Z,13.50
2023-02-02T00:32:53.305Z,13.70
2023-02-02T00:35:20.998Z,14.10
2023-02-02T00:37:47.809Z,12.80
2023-02-02T00:40:14.644Z,12.80
2023-02-02T00:42:43.621Z,13.30
2023-02-02T00:45:16.593Z,12.50
2023-02-02T00:47:48.008Z,10.90
2023-02-02T00:50:21.062Z,13.90
2023-02-02T00:52:49.284Z,13.10
2023-02-02T00:55:17.624Z,16.80
2023-02-02T00:57:46.277Z,15.00
2023-02-02T01:00:16.762Z,18.50
2023-02-02T01:02:44.118Z,18.50
2023-02-02T01:05:14.064Z,20.60
2023-02-02T01:07:40.767Z,18.10
2023-02-02T01:10:11.595Z,18.60
2023-02-02T01:12:38.342Z,18.70
2023-02-02T01:15:06.166Z,16.90
2023-02-02T01:17:33.219Z,15.50
2023-02-02T01:19:59.934Z,14.00
2023-02-02T01:22:26.689Z,15.10
2023-02-02T01:24:53.367Z,16.40
2023-02-02T01:27:20.017Z,14.90
2023-02-02T01:29:46.733Z,15.20
2023-02-02T01:32:13.392Z,15.00
2023-02-02T01:34:41.915Z,14.90
2023-02-02T01:37:09.700Z,15.00
2023-02-02T01:39:36.998Z,16.80
2023-02-02T01:42:11.279Z,16.30
2023-02-02T01:45:13.309Z,17.10
2023-02-02T01:47:46.350Z,15.10
2023-02-02T01:50:16.736Z,15.30
2023-02-02T01:52:48.475Z,14.80
2023-02-02T01:55:18.817Z,15.20
2023-02-02T01:57:53.242Z,16.60
2023-02-02T02:00:27.188Z,16.30
2023-02-02T02:03:02.330Z,17.70
2023-02-02T02:05:34.461Z,17.30
2023-02-02T02:08:08.361Z,21.10
2023-02-02T02:10:35.227Z,20.10
2023-02-02T02:13:02.431Z,21.70
2023-02-02T02:15:57.391Z,21.80
2023-02-02T02:18:50.318Z,19.00
2023-02-02T02:22:09.808Z,21.40
2023-02-02T02:25:30.951Z,21.10
2023-02-02T02:28:01.061Z,18.00
2023-02-02T02:30:31.017Z,17.10
2023-02-02T02:33:16.666Z,17.20
2023-02-02T02:35:59.519Z,13.90
2023-02-02T02:38:50.228Z,15.80
2023-02-02T02:41:21.898Z,14.20
2023-02-02T02:44:02.484Z,13.10
2023-02-02T02:46:29.554Z,14.50
2023-02-02T02:49:01.137Z,14.30
2023-02-02T02:51:53.537Z,14.70
2023-02-02T02:54:47.216Z,16.90
2023-02-02T02:57:35.916Z,16.70
2023-02-02T03:00:41.726Z,16.70
2023-02-02T03:03:26.717Z,16.40
2023-02-02T03:06:10.990Z,15.30
2023-02-02T03:11:10.824Z,13.40
2023-02-02T03:13:37.737Z,16.00
2023-02-02T03:16:04.681Z,15.70
2023-02-02T03:18:33.311Z,16.00
2023-02-02T03:21:00.151Z,13.50
2023-02-02T03:23:27.977Z,12.90
2023-02-02T03:25:55.615Z,13.20
2023-02-02T03:28:24.197Z,14.40
2023-02-02T03:30:52.434Z,18.60
2023-02-02T03:33:19.733Z,17.50
2023-02-02T03:35:46.532Z,15.70
2023-02-02T03:38:13.169Z,15.90
2023-02-02T03:40:40.850Z,18.40
2023-02-02T03:43:07.714Z,17.20
2023-02-02T03:45:37.438Z,16.00
2023-02-02T03:48:05.876Z,15.40
2023-02-02T03:50:33.417Z,13.70
2023-02-02T03:53:00.398Z,13.20
2023-02-02T03:55:27.050Z,13.90
2023-02-02T03:57:53.689Z,14.50
2023-02-02T04:00:20.778Z,11.40
2023-02-02T04:02:47.484Z,11.10
2023-02-02T04:05:14.271Z,11.90
2023-02-02T04:07:40.968Z,12.90
2023-02-02T04:10:07.999Z,12.20
2023-02-02T04:12:34.588Z,13.70
2023-02-02T04:15:01.195Z,13.00
2023-02-02T04:17:27.831Z,14.70
2023-02-02T04:19:58.195Z,11.60
2023-02-02T04:22:26.579Z,11.70
2023-02-02T04:24:53.528Z,11.80
2023-02-02T04:27:20.231Z,12.10
2023-02-02T04:29:47.047Z,11.60
2023-02-02T04:32:18.168Z,11.30
2023-02-02T04:34:45.086Z,12.00
2023-02-02T04:37:12.219Z,11.50
2023-02-02T04:39:38.953Z,13.90
2023-02-02T04:42:05.871Z,14.80
2023-02-02T04:44:32.570Z,15.30
2023-02-02T04:46:59.216Z,14.80
2023-02-02T04:49:25.983Z,14.30
2023-02-02T04:51:52.626Z,12.10
2023-02-02T04:54:19.374Z,11.50
2023-02-02T04:56:45.985Z,12.20
2023-02-02T04:59:12.588Z,11.60
2023-02-02T05:01:39.586Z,12.70
2023-02-02T05:04:06.343Z,13.90
2023-02-02T05:06:33.143Z,13.50
2023-02-02T05:09:00.136Z,14.00
2023-02-02T05:11:27.194Z,17.70
2023-02-02T05:13:55.210Z,20.10
2023-02-02T05:16:24.002Z,19.60
2023-02-02T05:18:54.071Z,17.90
2023-02-02T05:21:21.299Z,20.60
2023-02-02T05:23:48.440Z,24.50
2023-02-02T05:26:19.710Z,20.80
2023-02-02T05:28:46.551Z,18.20
2023-02-02T05:31:13.322Z,12.30
2023-02-02T05:33:40.112Z,13.50
2023-02-02T05:36:07.603Z,13.10
2023-02-02T05:38:35.107Z,10.80
2023-02-02T05:41:02.395Z,11.20
2023-02-02T05:43:30.775Z,11.30
2023-02-02T05:45:58.066Z,11.10
2023-02-02T05:48:25.083Z,11.30
2023-02-02T05:51:25.673Z,11.90
2023-02-02T05:53:52.341Z,12.90
2023-02-02T05:56:19.156Z,13.80
2023-02-02T05:58:48.181Z,13.00
2023-02-02T06:01:14.750Z,13.50
2023-02-02T06:03:41.473Z,13.90
2023-02-02T06:06:08.582Z,12.00
2023-02-02T06:08:36.336Z,10.70
2023-02-02T06:11:14.221Z,9.20
2023-02-02T06:13:40.839Z,9.10
2023-02-02T06:16:07.940Z,7.90
2023-02-02T06:18:35.707Z,7.30
2023-02-02T06:21:06.171Z,6.80
2023-02-02T06:23:34.192Z,7.00
2023-02-02T06:26:03.489Z,5.60
2023-02-02T06:28:33.060Z,5.80
2023-02-02T06:31:05.096Z,7.50
2023-02-02T06:33:31.877Z,6.60
2023-02-02T06:36:04.055Z,6.90
2023-02-02T06:38:30.822Z,7.20
2023-02-02T06:41:01.583Z,6.40
2023-02-02T06:43:29.776Z,6.80
2023-02-02T06:46:00.179Z,5.00
2023-02-02T06:48:27.793Z,4.40
2023-02-02T06:50:54.566Z,5.70
2023-02-02T06:53:24.018Z,4.70
2023-02-02T06:55:58.060Z,6.80
2023-02-02T06:58:24.684Z,7.20
2023-02-02T07:00:51.273Z,6.00
2023-02-02T07:03:19.027Z,4.90
2023-02-02T07:05:45.668Z,5.40
2023-02-02T07:08:12.346Z,5.50
2023-02-02T07:11:14.601Z,6.70
2023-02-02T07:13:26.508Z,6.20
2023-02-02T07:15:54.746Z,6.70
2023-02-02T07:18:22.620Z,7.90
2023-02-02T07:20:49.214Z,6.40
2023-02-02T07:23:15.998Z,7.50
2023-02-02T07:25:43.981Z,8.00
2023-02-02T07:28:10.932Z,4.70
2023-02-02T07:30:37.632Z,3.50
2023-02-02T07:33:04.271Z,2.80
2023-02-02T07:35:31.037Z,3.20
2023-02-02T07:37:57.932Z,4.40
2023-02-02T07:40:24.557Z,3.20
2023-02-02T07:42:51.182Z,4.20
2023-02-02T07:45:26.769Z,3.20
2023-02-02T07:47:58.636Z,3.20
2023-02-02T07:50:26.741Z,4.20
2023-02-02T07:52:53.826Z,6.50
2023-02-02T07:55:20.995Z,7.00
2023-02-02T07:57:47.655Z,6.70
2023-02-02T08:00:14.684Z,7.70
2023-02-02T08:02:41.379Z,6.20
2023-02-02T08:05:08.390Z,7.40
2023-02-02T08:07:35.645Z,20.00
2023-02-02T08:10:03.178Z,11.10
2023-02-02T08:12:29.758Z,7.60
2023-02-02T08:14:56.403Z,8.70
2023-02-02T08:17:23.687Z,11.70
2023-02-02T08:19:50.333Z,14.60
2023-02-02T08:22:18.384Z,13.90
2023-02-02T08:24:46.847Z,18.20
2023-02-02T08:27:15.566Z,16.30
2023-02-02T08:29:42.534Z,17.90
2023-02-02T08:32:09.323Z,17.40
2023-02-02T08:34:37.052Z,18.50
2023-02-02T08:37:04.505Z,18.20
2023-02-02T08:39:31.183Z,20.80
2023-02-02T08:41:58.348Z,20.20
2023-02-02T08:44:26.411Z,20.10
2023-02-02T08:47:06.387Z,19.00
2023-02-02T08:49:33.538Z,21.20
2023-02-02T08:52:02.998Z,19.40
2023-02-02T08:54:29.719Z,19.30
2023-02-02T08:56:56.780Z,19.40
2023-02-02T08:59:23.370Z,18.40
2023-02-02T09:01:50.166Z,18.80
2023-02-02T09:04:16.875Z,18.20
2023-02-02T09:06:44.784Z,20.30
2023-02-02T09:09:14.929Z,21.30
2023-02-02T09:11:42.562Z,20.40
2023-02-02T09:14:12.066Z,21.00
2023-02-02T09:16:39.798Z,22.50
2023-02-02T09:19:07.322Z,23.40
2023-02-02T09:21:37.056Z,22.80
2023-02-02T09:24:12.891Z,24.50
2023-02-02T09:26:40.677Z,21.80
2023-02-02T09:29:12.436Z,24.50
2023-02-02T09:31:39.508Z,24.10
2023-02-02T09:34:10.101Z,20.70
2023-02-02T09:36:38.078Z,23.50
2023-02-02T09:39:06.127Z,23.30
2023-02-02T09:42:14.782Z,24.30
2023-02-02T09:44:50.279Z,23.90
2023-02-02T09:47:25.854Z,23.20
2023-02-02T09:50:23.468Z,21.00
2023-02-02T09:53:24.795Z,19.10
2023-02-02T09:55:59.127Z,19.90
2023-02-02T09:58:34.616Z,22.10
2023-02-02T10:01:10.463Z,24.40
2023-02-02T10:04:05.646Z,20.00
2023-02-02T10:06:35.163Z,22.50
2023-02-02T10:09:16.354Z,22.70
2023-02-02T10:11:58.597Z,23.10
2023-02-02T10:14:39.390Z,21.40
2023-02-02T10:17:32.175Z,23.10
2023-02-02T10:20:06.055Z,19.80
2023-02-02T10:22:34.456Z,23.00
2023-02-02T10:25:01.199Z,21.70
2023-02-02T10:27:59.424Z,22.30
2023-02-02T10:30:51.972Z,20.80
2023-02-02T10:33:33.413Z,33.50
2023-02-02T10:37:04.696Z,35.10
2023-02-02T10:39:40.342Z,22.20
2023-02-02T10:42:42.977Z,19.00
2023-02-02T10:45:19.028Z,21.30
2023-02-02T10:47:45.950Z,21.00
2023-02-02T10:50:12.612Z,22.30
2023-02-02T10:52:45.225Z,22.70
2023-02-02T10:55:15.744Z,23.70
2023-02-02T10:58:13.611Z,20.10
2023-02-02T11:00:52.580Z,20.60
2023-02-02T11:03:23.127Z,20.20
2023-02-02T11:06:08.508Z,19.60
2023-02-02T11:08:41.475Z,18.60
2023-02-02T11:11:21.705Z,19.00
2023-02-02T11:13:59.314Z,16.00
2023-02-02T11:16:41.900Z,16.30
2023-02-02T11:19:20.089Z,14.90
2023-02-02T11:21:56.551Z,17.00
2023-02-02T11:24:47.144Z,15.90
2023-02-02T11:27:13.798Z,15.70
2023-02-02T11:29:40.507Z,17.70
2023-02-02T11:32:19.905Z,15.40
2023-02-02T11:34:47.146Z,18.30
2023-02-02T11:37:20.223Z,18.60
2023-02-02T11:39:47.170Z,19.70
2023-02-02T11:42:24.572Z,15.00
2023-02-02T11:44:57.830Z,17.10
2023-02-02T11:47:33.276Z,16.90
2023-02-02T11:50:02.610Z,18.40
2023-02-02T11:52:33.125Z,16.00
2023-02-02T11:55:02.593Z,16.20
2023-02-02T11:57:30.727Z,16.40
2023-02-02T12:00:06.645Z,16.50
2023-02-02T12:02:34.525Z,15.80
2023-02-02T12:05:10.336Z,16.50
2023-02-02T12:07:37.692Z,16.70
2023-02-02T12:10:19.557Z,16.60
2023-02-02T12:13:00.384Z,15.20
2023-02-02T12:15:38.214Z,15.00
2023-02-02T12:18:43.643Z,13.90
2023-02-02T12:21:19.867Z,12.80
2023-02-02T12:23:49.274Z,11.90
2023-02-02T12:26:34.466Z,12.00
2023-02-02T12:29:06.113Z,12.60
2023-02-02T12:31:55.916Z,11.80
2023-02-02T12:37:07.540Z,9.30
2023-02-02T12:39:58.825Z,8.80
2023-02-02T12:42:57.918Z,9.80
2023-02-02T12:45:47.743Z,8.40
2023-02-02T12:48:33.037Z,7.90
2023-02-02T12:51:33.144Z,6.40
2023-02-02T12:54:33.944Z,5.80
2023-02-02T12:57:36.018Z,7.30
2023-02-02T13:00:18.027Z,9.10
2023-02-02T13:03:03.631Z,7.30
2023-02-02T13:05:48.397Z,5.40
2023-02-02T13:08:21.444Z,4.10
2023-02-02T13:10:55.123Z,3.80
2023-02-02T13:13:31.648Z,2.80
2023-02-02T13:16:11.796Z,1.80
2023-02-02T13:18:45.257Z,1.70
2023-02-02T13:21:16.972Z,2.00
2023-02-02T13:23:51.319Z,1.60
2023-02-02T13:26:40.829Z,1.90
2023-02-02T13:29:11.433Z,2.20
2023-02-02T13:31:48.587Z,2.40
2023-02-02T13:34:39.435Z,2.60
2023-02-02T13:37:23.691Z,3.00
2023-02-02T13:39:58.635Z,3.10
2023-02-02T13:42:38.001Z,4.80
2023-02-02T13:45:46.724Z,4.60
2023-02-02T13:48:34.633Z,3.90
2023-02-02T13:51:19.664Z,3.50
2023-02-02T13:54:04.336Z,9.70
2023-02-02T13:56:38.803Z,6.80
2023-02-02T13:59:46.993Z,3.90
2023-02-02T14:02:29.601Z,3.20
2023-02-02T14:04:59.877Z,3.50
2023-02-02T14:07:32.709Z,3.20
2023-02-02T14:09:59.686Z,4.10
2023-02-02T14:12:32.082Z,4.70
2023-02-02T14:14:59.102Z,4.10
2023-02-02T14:17:25.577Z,3.70
2023-02-02T14:20:01.351Z,4.40
2023-02-02T14:22:48.290Z,4.40
2023-02-02T14:25:33.528Z,5.30
2023-02-02T14:28:05.087Z,4.90
2023-02-02T14:30:35.514Z,5.30
2023-02-02T14:33:20.463Z,5.20
2023-02-02T14:35:47.208Z,4.60
2023-02-02T14:38:39.523Z,4.20
2023-02-02T14:41:13.697Z,3.80
2023-02-02T14:43:49.875Z,5.00
2023-02-02T14:46:21.860Z,4.20
2023-02-02T14:52:05.376Z,4.50
2023-02-02T14:54:37.366Z,5.30
2023-02-02T14:57:23.763Z,7.10
2023-02-02T14:59:52.088Z,6.70
2023-02-02T15:02:23.368Z,7.20
2023-02-02T15:04:50.333Z,7.00
2023-02-02T15:07:22.729Z,8.70
2023-02-02T15:09:50.721Z,8.80
2023-02-02T15:12:34.150Z,8.00
2023-02-02T15:15:25.643Z,7.00
2023-02-02T15:18:33.613Z,8.60
2023-02-02T15:21:05.277Z,8.70
2023-02-02T15:23:39.081Z,10.30
2023-02-02T15:26:27.434Z,9.10
2023-02-02T15:29:08.238Z,9.60
2023-02-02T15:31:44.082Z,9.00
2023-02-02T15:34:25.760Z,8.50
2023-02-02T15:36:57.382Z,8.70
2023-02-02T15:39:31.686Z,8.60
2023-02-02T15:42:18.957Z,8.90
2023-02-02T15:44:45.740Z,8.90
2023-02-02T15:47:16.944Z,9.70
2023-02-02T15:49:45.455Z,9.20
2023-02-02T15:52:28.292Z,9.80
2023-02-02T15:54:57.816Z,10.30
2023-02-02T15:57:34.193Z,9.60
2023-02-02T16:00:23.515Z,9.60
2023-02-02T16:03:09.031Z,9.20
2023-02-02T16:05:36.051Z,9.30
2023-02-02T16:08:06.699Z,8.90
2023-02-02T16:10:34.616Z,9.50
2023-02-02T16:13:02.336Z,10.00
2023-02-02T16:15:31.798Z,10.30
2023-02-02T16:18:13.310Z,9.90
2023-02-02T16:20:41.482Z,10.60
2023-02-02T16:23:15.351Z,9.80
2023-02-02T16:25:50.777Z,8.70
2023-02-02T16:28:20.140Z,11.30
2023-02-02T16:30:48.165Z,10.20
2023-02-02T16:33:28.304Z,12.50
2023-02-02T16:35:55.686Z,12.20
2023-02-02T16:38:33.219Z,11.50
2023-02-02T16:41:07.493Z,10.80
2023-02-02T16:43:35.980Z,8.20
2023-02-02T16:46:08.702Z,8.50
2023-02-02T16:48:55.496Z,11.00
2023-02-02T16:51:34.030Z,7.60
2023-02-02T16:54:06.914Z,7.20
2023-02-02T16:56:40.783Z,8.90
2023-02-02T16:59:24.027Z,6.90
2023-02-02T17:02:04.880Z,6.10
2023-02-02T17:04:34.145Z,6.70
2023-02-02T17:07:13.331Z,6.70
2023-02-02T17:09:45.219Z,6.80
2023-02-02T17:12:34.796Z,6.00
2023-02-02T17:15:24.875Z,10.80
2023-02-02T17:17:51.906Z,19.50
2023-02-02T17:20:19.473Z,18.80
2023-02-02T17:22:53.188Z,8.40
2023-02-02T17:25:27.709Z,6.50
2023-02-02T17:27:55.881Z,5.00
2023-02-02T17:30:22.984Z,11.10
2023-02-02T17:32:49.524Z,7.50
2023-02-02T17:35:19.813Z,9.20
2023-02-02T17:37:46.540Z,5.50
2023-02-02T17:40:16.489Z,4.30
2023-02-02T17:42:45.582Z,4.90
2023-02-02T17:45:18.927Z,5.90
2023-02-02T17:47:45.538Z,5.70
2023-02-02T17:50:12.188Z,7.40
2023-02-02T17:52:39.159Z,5.90
2023-02-02T17:55:29.457Z,5.40
2023-02-02T17:57:56.126Z,6.10
2023-02-02T18:00:25.142Z,8.80
2023-02-02T18:02:56.948Z,10.30
2023-02-02T18:05:24.250Z,13.80
2023-02-02T18:07:52.339Z,11.00
2023-02-02T18:10:19.497Z,16.80
2023-02-02T18:12:46.091Z,8.10
2023-02-02T18:15:14.776Z,7.00
2023-02-02T18:17:42.005Z,7.80
2023-02-02T18:20:13.466Z,12.40
2023-02-02T18:22:40.033Z,16.30
2023-02-02T18:25:06.917Z,9.70
2023-02-02T18:27:33.502Z,13.80
2023-02-02T18:30:00.045Z,11.70
2023-02-02T18:32:26.705Z,8.90
2023-02-02T18:34:55.821Z,5.20
2023-02-02T18:37:24.171Z,6.00
2023-02-02T18:39:51.822Z,6.80
2023-02-02T18:42:18.363Z,4.90
2023-02-02T18:44:45.056Z,4.10
2023-02-02T18:47:11.610Z,3.90
2023-02-02T18:49:38.327Z,3.60
2023-02-02T18:52:05.127Z,4.00
2023-02-02T18:54:33.985Z,3.70
2023-02-02T18:57:00.644Z,3.30
2023-02-02T18:59:28.555Z,2.30
2023-02-02T19:01:55.638Z,2.30
2023-02-02T19:04:22.302Z,4.60
2023-02-02T19:07:07.466Z,3.60
2023-02-02T19:09:34.759Z,3.00
2023-02-02T19:12:01.964Z,3.30
2023-02-02T19:14:37.570Z,4.90
2023-02-02T19:17:24.524Z,3.90
2023-02-02T19:19:51.323Z,4.60
2023-02-02T19:22:22.360Z,3.90
2023-02-02T19:24:49.726Z,3.10
2023-02-02T19:27:21.964Z,4.30
2023-02-02T19:32:21.725Z,2.50
2023-02-02T19:34:51.817Z,2.20
2023-02-02T19:37:21.362Z,3.40
2023-02-02T19:39:47.976Z,4.00
2023-02-02T19:42:14.548Z,3.50
2023-02-02T19:44:42.122Z,3.80
2023-02-02T19:47:23.849Z,4.80
2023-02-02T19:49:50.690Z,4.00
2023-02-02T19:52:23.130Z,3.60
2023-02-02T19:54:50.232Z,3.30
2023-02-02T19:57:21.334Z,4.00
2023-02-02T19:59:50.403Z,3.10
2023-02-02T20:02:54.423Z,3.30
2023-02-02T20:05:29.679Z,3.80
2023-02-02T20:08:21.622Z,3.90
2023-02-02T20:10:48.290Z,4.30
2023-02-02T20:13:19.988Z,3.30
2023-02-02T20:15:47.740Z,3.00
2023-02-02T20:18:27.305Z,4.10
2023-02-02T20:20:56.299Z,4.60
2023-02-02T20:23:31.885Z,3.80
2023-02-02T20:26:03.700Z,4.40
2023-02-02T20:28:41.738Z,3.80
2023-02-02T20:31:11.175Z,5.40
2023-02-02T20:33:41.920Z,3.50
2023-02-02T20:36:29.985Z,3.40
2023-02-02T20:39:01.139Z,3.60
2023-02-02T20:41:27.693Z,3.40
2023-02-02T20:43:54.483Z,5.10
2023-02-02T20:46:21.124Z,3.80
2023-02-02T20:48:49.031Z,2.70
2023-02-02T20:51:15.853Z,2.80
2023-02-02T20:53:42.751Z,3.20
2023-02-02T20:56:09.290Z,2.70
2023-02-02T20:58:35.924Z,3.30
2023-02-02T21:01:05.381Z,5.20
2023-02-02T21:03:32.659Z,4.90
2023-02-02T21:05:59.929Z,6.20
2023-02-02T21:08:26.572Z,3.50
2023-02-02T21:10:53.118Z,3.30
2023-02-02T21:13:19.628Z,3.50
2023-02-02T21:15:46.396Z,4.50
2023-02-02T21:18:12.923Z,4.00
2023-02-02T21:20:39.725Z,3.50
2023-02-02T21:23:06.326Z,2.80
2023-02-02T21:25:32.891Z,3.30
2023-02-02T21:28:00.280Z,3.90
2023-02-02T21:30:27.470Z,3.50
2023-02-02T21:32:54.324Z,3.20
2023-02-02T21:35:21.313Z,3.80
2023-02-02T21:37:54.175Z,3.40
2023-02-02T21:40:32.781Z,4.30
2023-02-02T21:43:01.307Z,3.40
2023-02-02T21:45:35.212Z,3.20
2023-02-02T21:48:06.620Z,2.90
2023-02-02T21:50:40.147Z,4.00
2023-02-02T21:53:23.377Z,4.10
2023-02-02T21:55:54.045Z,4.80
2023-02-02T21:58:26.259Z,8.20
2023-02-02T22:03:37.531Z,7.90
2023-02-02T22:06:35.358Z,6.40
2023-02-02T22:09:17.919Z,3.30
2023-02-02T22:12:02.157Z,4.70
2023-02-02T22:16:59.588Z,7.30
2023-02-02T22:19:37.711Z,13.20
2023-02-02T22:22:13.236Z,12.00
2023-02-02T22:24:40.134Z,9.10
2023-02-02T22:27:37.083Z,6.90
2023-02-02T22:30:29.106Z,7.00
2023-02-02T22:32:55.823Z,9.60
2023-02-02T22:35:22.498Z,9.70
2023-02-02T22:37:49.065Z,8.40
2023-02-02T22:40:16.456Z,9.80
2023-02-02T22:42:43.427Z,9.00
2023-02-02T22:45:10.832Z,8.50
2023-02-02T22:47:37.386Z,10.20
2023-02-02T22:50:04.225Z,7.70
2023-02-02T22:52:30.763Z,6.90
2023-02-02T22:54:57.356Z,8.70
2023-02-02T22:57:23.873Z,8.90
2023-02-02T22:59:50.392Z,9.50
2023-02-02T23:02:17.004Z,8.60
2023-02-02T23:04:46.673Z,9.20
2023-02-02T23:07:13.202Z,9.30
2023-02-02T23:09:39.813Z,7.60
2023-02-02T23:12:06.569Z,8.80
2023-02-02T23:14:33.323Z,6.70
2023-02-02T23:16:59.966Z,9.10
2023-02-02T23:19:26.504Z,10.00
2023-02-02T23:21:53.150Z,10.30
2023-02-02T23:24:19.679Z,9.60
2023-02-02T23:26:46.210Z,8.60
2023-02-02T23:29:12.778Z,8.30
2023-02-02T23:31:39.380Z,6.10
2023-02-02T23:34:05.979Z,5.80
2023-02-02T23:36:32.522Z,8.10
2023-02-02T23:38:59.053Z,7.20
2023-02-02T23:41:25.618Z,8.10
2023-02-02T23:43:53.031Z,7.10
2023-02-02T23:46:20.106Z,7.50
2023-02-02T23:48:47.242Z,7.50
2023-02-02T23:51:14.254Z,7.70
2023-02-02T23:53:42.339Z,7.30
2023-02-02T23:56:09.822Z,6.80
2023-02-02T23:58:36.491Z,7.50
